Weather observations for the past three days for
Waukesha County Airport
| Date | Time (cdt) | Wind (kph) | Vis. (km) | Weather | Sky Cond. | Temperature (ºC) | Relative Humidity | Wind Chill (°C) | Heat Index (°C) | Pressure | Precipitation (cm) | ||||||
|---|---|---|---|---|---|---|---|---|---|---|---|---|---|---|---|---|---|
| Air | Dwpt | 6 hour | altimeter (cm) | sea level (mb) | 1 hr | 3 hr | 6 hr | ||||||||||
| Max. | Min. | ||||||||||||||||
| 07 | 13:45 | SE 11 | 16.09 | Overcast | OVC075 | 12 | -2 | 38% | 75.82 | 0.0 | |||||||
| 07 | 12:45 | SW 15 | 16.09 | Mostly Cloudy | BKN070 | 12 | -2 | 38% | 75.92 | 0.0 | |||||||
| 07 | 11:45 | Calm | 16.09 | Fair | CLR | 10 | -3 | 40% | 76 | 0.0 | |||||||
| 07 | 10:45 | SW 6 | 16.09 | Partly Cloudy | SCT075 | 8 | -3 | 46% | 76.05 | 0.0 | |||||||
| 07 | 09:45 | SW 6 | 16.09 | A Few Clouds | FEW075 | 7 | -3 | 49% | 76.1 | 0.0 | |||||||
| 07 | 08:45 | W 9 | 16.09 | Mostly Cloudy | SCT023 BKN031 BKN037 | 5 | -1 | 66% | 3 | 76.15 | 0.0 | ||||||
| 07 | 07:45 | SW 9 | 16.09 | Overcast | BKN050 OVC070 | 5 | -2 | 61% | 3 | 76.15 | 0.0 | ||||||
| 07 | 05:35 | Calm | 16.09 | Fair | CLR | 0 | -3 | 80% | 76.1 | 0.0 | |||||||
| 07 | 05:15 | SW 7 | 16.09 | Fair | CLR | 0 | -3 | 80% | -2 | 76.1 | 0.0 | ||||||
| 07 | 04:55 | SW 6 | 16.09 | Fair | CLR | 0 | -3 | 80% | 76.1 | 0.0 | |||||||
| 07 | 04:35 | SW 6 | 16.09 | Fair | CLR | 0 | -3 | 80% | 76.1 | 0.0 | |||||||
| 07 | 04:15 | SW 6 | 16.09 | Fair | CLR | 0 | -3 | 80% | 76.07 | 0.0 | |||||||
| 07 | 03:55 | Calm | 16.09 | Fair | CLR | 0 | -3 | 80% | 76.1 | 0.0 | |||||||
| 07 | 03:35 | SW 6 | 16.09 | Fair | CLR | 1 | -3 | 75% | 76.1 | 0.0 | |||||||
| 07 | 03:15 | SW 6 | 16.09 | Fair | CLR | 1 | -3 | 75% | 76.1 | 0.0 | |||||||
| 07 | 02:55 | SW 6 | 16.09 | Fair | CLR | 1 | -3 | 75% | 76.07 | 0.0 | |||||||
| 07 | 02:15 | Calm | 16.09 | Fair | CLR | 1 | -3 | 75% | 76.1 | 0.0 | |||||||
| 07 | 01:55 | W 7 | 16.09 | Fair | CLR | 3 | -3 | 65% | 1 | 76.12 | 0.0 | ||||||
| 07 | 01:35 | W 6 | 16.09 | Fair | CLR | 3 | -2 | 70% | 76.15 | 0.0 | |||||||
| 07 | 01:15 | W 11 | 16.09 | Fair | CLR | 3 | -3 | 65% | 0 | 76.15 | 0.0 | ||||||
| 07 | 00:55 | W 11 | 16.09 | Fair | CLR | 4 | -3 | 61% | 2 | 76.15 | 0.0 | ||||||
| 07 | 00:35 | NW 15 | 16.09 | Fair | CLR | 4 | -3 | 61% | 1 | 76.15 | 0.0 | ||||||
| 07 | 00:15 | W 11 | 16.09 | Fair | CLR | 4 | -2 | 65% | 2 | 76.15 | 0.0 | ||||||
| 06 | 23:55 | W 9 | 16.09 | Fair | CLR | 4 | -3 | 61% | 2 | 76.15 | 0.0 | ||||||
| 06 | 23:35 | W 9 | 16.09 | Fair | CLR | 5 | -3 | 57% | 3 | 76.15 | 0.0 | ||||||
| 06 | 23:15 | W 11 | 16.09 | Fair | CLR | 5 | -3 | 57% | 3 | 76.15 | 0.0 | ||||||
| 06 | 22:35 | W 9 | 16.09 | Fair | CLR | 5 | -2 | 61% | 3 | 76.17 | 0.0 | ||||||
| 06 | 22:15 | W 15 | 16.09 | Partly Cloudy | SCT065 | 6 | -3 | 53% | 3 | 76.17 | 0.0 | ||||||
| 06 | 21:55 | NW 17 | 16.09 | Partly Cloudy | SCT065 | 6 | -3 | 53% | 3 | 76.17 | 0.0 | ||||||
| 06 | 21:35 | W 19 | 16.09 | Partly Cloudy | SCT070 | 6 | -3 | 53% | 3 | 76.15 | 0.0 | ||||||
| 06 | 21:15 | W 19 | 16.09 | Overcast | OVC070 | 7 | -3 | 49% | 4 | 76.15 | 0.0 | ||||||
| 06 | 20:55 | W 24 G 33 | 16.09 | Mostly Cloudy | BKN070 | 7 | -3 | 49% | 4 | 76.12 | 0.0 | ||||||
| 06 | 20:45 | W 24 G 31 | 16.09 | Mostly Cloudy | BKN060 | 8 | -3 | 46% | 5 | 76.12 | 0.0 | ||||||
| 06 | 19:45 | NW 24 | 16.09 | Mostly Cloudy | BKN065 | 9 | -3 | 43% | 6 | 76.05 | 0.0 | ||||||
| 06 | 18:45 | NW 22 G 30 | 16.09 | Overcast | SCT065 OVC080 | 10 | -3 | 40% | 7 | 76.02 | 0.0 | ||||||
| 06 | 17:45 | W 19 G 35 | 16.09 | Overcast | SCT065 OVC080 | 11 | -3 | 38% | 76.02 | 0.0 | |||||||
| 06 | 16:45 | W 19 G 30 | 16.09 | Mostly Cloudy | SCT070 BKN080 | 11 | -4 | 35% | 76 | 0.0 | |||||||
| 06 | 15:45 | NW 19 G 30 | 16.09 | Overcast | OVC075 | 12 | -3 | 35% | 76 | 0.0 | |||||||
| 06 | 14:45 | W 17 G 31 | 16.09 | Overcast | SCT060 OVC075 | 11 | -3 | 38% | 76 | 0.0 | |||||||
| 06 | 13:45 | W 20 G 33 | 16.09 | Overcast | SCT060 OVC075 | 11 | -3 | 38% | 76.02 | 0.0 | |||||||
| 06 | 12:45 | W 20 G 31 | 16.09 | Overcast | OVC070 | 11 | -3 | 38% | 76.02 | 0.0 | |||||||
| 06 | 11:45 | W 20 G 35 | 16.09 | Overcast | OVC060 | 11 | -3 | 38% | 76.05 | 0.0 | |||||||
| 06 | 10:45 | W 19 G 31 | 16.09 | Mostly Cloudy | SCT060 BKN075 | 10 | -3 | 40% | 8 | 76.05 | 0.0 | ||||||
| 06 | 09:45 | NW 19 | 16.09 | Fair | CLR | 10 | -3 | 40% | 8 | 76.02 | 0.0 | ||||||
| 06 | 08:45 | NW 9 | 16.09 | NULL | NULL | 8 | -2 | 50% | 7 | 76.02 | 0.0 | ||||||
| 06 | 07:45 | W 6 | 16.09 | NULL | NULL | 7 | -2 | 53% | 76 | 0.0 | |||||||
| 06 | 06:45 | Calm | 16.09 | NULL | NULL | 2 | -2 | 75% | 75.97 | 0.0 | |||||||
| 06 | 05:45 | Calm | 16.09 | Fair | CLR | 1 | -2 | 81% | 75.92 | 0.0 | |||||||
| 06 | 05:35 | Calm | 16.09 | Fair | CLR | 0 | -2 | 87% | 75.92 | 0.0 | |||||||
| 06 | 05:15 | Calm | 16.09 | Fair | CLR | 1 | -2 | 81% | 75.9 | 0.0 | |||||||
| 06 | 04:55 | Calm | 16.09 | Fair | CLR | 1 | -2 | 81% | 75.9 | 0.0 | |||||||
| 06 | 04:30 | Calm | 16.09 | Fair | CLR | 0 | -1 | 93% | 75.92 | 0.0 | |||||||
| 06 | 04:15 | Calm | 16.09 | Fair | CLR | 1 | -2 | 81% | 75.92 | 0.0 | |||||||
| 06 | 03:55 | Calm | 16.09 | Fair | CLR | 1 | -1 | 87% | 75.9 | 0.0 | |||||||
| 06 | 03:35 | Calm | 16.09 | Fair | CLR | 1 | -1 | 87% | 75.9 | 0.0 | |||||||
| 06 | 03:15 | Calm | 16.09 | Fair | CLR | 2 | -2 | 75% | 75.87 | 0.0 | |||||||
| 06 | 02:55 | Calm | 16.09 | Fair | CLR | 2 | -2 | 75% | 75.87 | 0.0 | |||||||
| 06 | 02:35 | Calm | 16.09 | Fair | CLR | 1 | -2 | 81% | 75.84 | 0.0 | |||||||
| 06 | 02:15 | Calm | 16.09 | Fair | CLR | 2 | -2 | 75% | 75.87 | 0.0 | |||||||
| 06 | 01:55 | Calm | 16.09 | Fair | CLR | 2 | -2 | 75% | 75.87 | 0.0 | |||||||
| 06 | 01:35 | Calm | 16.09 | Fair | CLR | 3 | -2 | 70% | 75.87 | 0.0 | |||||||
| 06 | 01:10 | Calm | 16.09 | Fair | CLR | 3 | -2 | 70% | 75.87 | 0.0 | |||||||
| 06 | 00:55 | Calm | 16.09 | Fair | CLR | 4 | -2 | 65% | 75.87 | 0.0 | |||||||
| 06 | 00:15 | Calm | 16.09 | Mostly Cloudy | BKN080 | 5 | -3 | 57% | 75.9 | 0.0 | |||||||
| 05 | 23:55 | Calm | 16.09 | Partly Cloudy | SCT080 | 6 | -3 | 53% | 75.9 | 0.0 | |||||||
| 05 | 23:35 | Calm | 16.09 | Fair | CLR | 6 | -3 | 53% | 75.87 | 0.0 | |||||||
| 05 | 23:15 | Calm | 16.09 | Fair | CLR | 6 | -3 | 53% | 75.87 | 0.0 | |||||||
| 05 | 22:55 | Calm | 16.09 | Fair | CLR | 7 | -4 | 46% | 75.84 | 0.0 | |||||||
| 05 | 22:35 | N 7 | 16.09 | Fair | CLR | 7 | -4 | 46% | 6 | 75.84 | 0.0 | ||||||
| 05 | 22:15 | N 7 | 16.09 | Fair | CLR | 7 | -4 | 46% | 6 | 75.84 | 0.0 | ||||||
| 05 | 21:55 | N 11 | 16.09 | Fair | CLR | 8 | -3 | 46% | 6 | 75.84 | 0.0 | ||||||
| 05 | 21:35 | N 9 | 16.09 | Fair | CLR | 8 | -3 | 46% | 7 | 75.82 | 0.0 | ||||||
| 05 | 21:15 | N 15 | 16.09 | Fair | CLR | 9 | -3 | 43% | 7 | 75.79 | 0.0 | ||||||
| 05 | 20:55 | NW 13 | 16.09 | Fair | CLR | 10 | -3 | 40% | 8 | 75.77 | 0.0 | ||||||
| 05 | 20:45 | NW 13 | 16.09 | Fair | CLR | 10 | -3 | 40% | 8 | 75.74 | 0.0 | ||||||
| 05 | 19:45 | NW 19 G 28 | 16.09 | Fair | CLR | 11 | -4 | 35% | 75.69 | 0.0 | |||||||
| 05 | 18:45 | NW 22 G 35 | 16.09 | Fair | CLR | 12 | -4 | 33% | 75.64 | 0.0 | |||||||
| 05 | 17:45 | W 17 G 31 | 16.09 | Fair | CLR | 13 | -4 | 31% | 75.64 | 0.0 | |||||||
| 05 | 16:45 | NW 24 G 43 | 16.09 | Fair | CLR | 14 | -5 | 27% | 75.64 | 0.0 | |||||||
| 05 | 15:45 | W 28 G 41 | 16.09 | Fair | CLR | 14 | -4 | 29% | 75.64 | 0.0 | |||||||
| 05 | 14:45 | W 26 G 41 | 16.09 | Fair | CLR | 13 | -4 | 31% | 75.67 | 0.0 | |||||||
| 05 | 13:45 | W 28 G 41 | 16.09 | Fair | CLR | 13 | -4 | 31% | 75.67 | 0.0 | |||||||
| 05 | 12:45 | NW 26 G 39 | 16.09 | Fair | CLR | 12 | -4 | 33% | 75.67 | 0.0 | |||||||
| 05 | 11:45 | W 22 G 39 | 16.09 | Fair | CLR | 12 | -3 | 35% | 75.62 | 0.0 | |||||||
| 05 | 10:45 | NW 22 G 37 | 16.09 | Fair | CLR | 11 | -4 | 35% | 75.64 | 0.0 | |||||||
| 05 | 09:45 | W 22 G 39 | 16.09 | Fair | CLR | 11 | -3 | 38% | 75.64 | 0.0 | |||||||
| 05 | 08:45 | W 24 G 33 | 16.09 | Fair | CLR | 9 | -3 | 43% | 6 | 75.67 | 0.0 | ||||||
| 05 | 07:45 | SW 9 | 16.09 | Fair | CLR | 8 | -2 | 50% | 7 | 75.67 | 0.0 | ||||||
| 05 | 06:45 | Calm | 16.09 | Fair | CLR | 7 | -2 | 53% | 75.57 | 0.0 | |||||||
| 05 | 05:45 | W 7 | 16.09 | Fair | CLR | 7 | -3 | 49% | 6 | 75.57 | 0.0 | ||||||
| 05 | 05:35 | NW 9 | 16.09 | Fair | CLR | 7 | -3 | 49% | 5 | 75.54 | 0.0 | ||||||
| 05 | 05:15 | NW 11 | 16.09 | Fair | CLR | 7 | -3 | 49% | 5 | 75.51 | 0.0 | ||||||
| 05 | 04:55 | NW 13 | 16.09 | Fair | CLR | 7 | -3 | 49% | 5 | 75.49 | 0.0 | ||||||
| 05 | 04:35 | NW 17 | 16.09 | Fair | CLR | 8 | -3 | 46% | 6 | 75.51 | 0.0 | ||||||
| 05 | 04:15 | NW 15 | 16.09 | Fair | CLR | 8 | -2 | 50% | 6 | 75.51 | 0.0 | ||||||
| 05 | 03:55 | NW 15 | 16.09 | Fair | CLR | 8 | -3 | 46% | 6 | 75.44 | 0.0 | ||||||
| 05 | 03:35 | NW 13 | 16.09 | Fair | CLR | 8 | -2 | 50% | 6 | 75.44 | 0.0 | ||||||
| 05 | 03:15 | NW 11 G 28 | 16.09 | Fair | CLR | 8 | -2 | 50% | 6 | 75.39 | 0.0 | ||||||
| 05 | 02:55 | NW 15 G 28 | 16.09 | Fair | CLR | 8 | -1 | 53% | 6 | 75.34 | 0.0 | ||||||
| 05 | 02:35 | NW 17 G 26 | 16.09 | Fair | CLR | 9 | -1 | 50% | 7 | 75.34 | 0.0 | ||||||
| 05 | 02:15 | NW 22 G 31 | 16.09 | Fair | CLR | 10 | 0 | 50% | 7 | 75.31 | 0.0 | ||||||
| 05 | 01:55 | NW 19 G 26 | 16.09 | Fair | CLR | 10 | 0 | 50% | 8 | 75.29 | 0.0 | ||||||
| 05 | 01:35 | NW 15 | 16.09 | Fair | CLR | 11 | 0 | 47% | 75.26 | 0.0 | |||||||
| 05 | 01:15 | NW 17 G 26 | 16.09 | Fair | CLR | 11 | 0 | 47% | 75.26 | 0.0 | |||||||
| 05 | 00:55 | NW 26 G 33 | 16.09 | Fair | CLR | 12 | 0 | 44% | 75.26 | 0.0 | |||||||
| 05 | 00:35 | NW 17 | 16.09 | Fair | CLR | 12 | 0 | 44% | 75.21 | 0.0 | |||||||
| 05 | 00:15 | NW 30 G 41 | 16.09 | Fair | CLR | 13 | 0 | 41% | 75.18 | 0.0 | |||||||
| 04 | 23:55 | W 17 G 33 | 16.09 | Fair | CLR | 13 | 0 | 41% | 75.13 | 0.0 | |||||||
| 04 | 23:35 | W 19 G 28 | 16.09 | Fair | CLR | 14 | -1 | 36% | 75.13 | 0.0 | |||||||
| 04 | 23:15 | NW 24 G 33 | 16.09 | Partly Cloudy | SCT120 | 15 | -1 | 34% | 75.11 | 0.0 | |||||||
| 04 | 22:55 | W 20 | 16.09 | Partly Cloudy | SCT120 | 15 | -1 | 34% | 75.08 | 0.0 | |||||||
| 04 | 22:35 | W 26 G 33 | 16.09 | Partly Cloudy | SCT120 | 16 | -1 | 31% | 75.11 | 0.0 | |||||||
| 04 | 22:15 | W 17 | 16.09 | Mostly Cloudy | BKN120 | 16 | -1 | 31% | 75.08 | 0.0 | |||||||
| 04 | 21:55 | W 20 | 16.09 | Partly Cloudy | SCT120 | 17 | -1 | 30% | 75.01 | 0.0 | |||||||
| 04 | 21:35 | W 26 G 43 | 16.09 | Fair | CLR | 17 | 0 | 32% | 75.01 | 0.0 | |||||||
| 04 | 21:15 | W 22 G 33 | 16.09 | Partly Cloudy | SCT120 | 17 | 1 | 34% | 74.98 | 0.0 | |||||||
| 04 | 20:55 | W 20 G 35 | 16.09 | Mostly Cloudy | BKN120 | 18 | 2 | 34% | 74.98 | 0.0 | |||||||
| 04 | 18:45 | SW 19 | 16.09 | Fair | CLR | 23 | 5 | 31% | 74.7 | 0.0 | |||||||
| 04 | 17:45 | W 24 G 33 | 16.09 | Fair | CLR | 26 | 6 | 28% | 26 | 74.73 | 0.0 | ||||||
| 04 | 16:45 | SW 28 G 39 | 16.09 | Fair | CLR | 26 | 4 | 24% | 26 | 74.75 | 0.0 | ||||||
| 04 | 15:45 | W 30 G 50 | 16.09 | Fair | CLR | 26 | 3 | 23% | 26 | 74.8 | 0.0 | ||||||
| 04 | 14:45 | W 28 G 46 | 16.09 | Fair | CLR | 26 | 4 | 24% | 26 | 74.83 | 0.0 | ||||||
| Date | Time (cdt) | Wind (kph) | Vis. (km) | Weather | Sky Cond. | Air | Dwpt | Max. | Min. | Relative Humidity | Wind Chill (°C) | Heat Index (°C) | altimeter (cm) | sea level (mb) | 1 hr | 3 hr | 6 hr |
| 6 hour | |||||||||||||||||
| Temperature (ºC) | Pressure | Precipitation (cm) | |||||||||||||||